Nearby METAR Reports

 

LIBV - Gioia Del Colle, Italy
Distance from station: PdPdWs 15km
Aktualizacja: 17/01/2018 22:07
Częściowe zachmurzenie
Częściowe zachmurzenie
 Wiatr z PnZd
Wiatr: PnZd 56 km/h, Poryw: 80 km/h
Temperatura: 7°C
Wind Chill: 2°C
Punkt Rosy: 4°C
Wilgotność: 81%
Ciśnienie: 1005 hPa
Clouds: Częściowe zachmurzenie
Visibility: 10 km
Cloud details: Częściowe zachmurzenie 457 m
2018/01/17 21:07 LIBV 172107Z 31030G43KT 9999 SCT015 07/04 Q1005 RMK BKN SCT100 VIS MIN 9999 WIND THR32 32031G42KT WIND THR14 31027G39KT BLU
LIBD - Bari/Palese Macc, Italy
Distance from station: PnPnZd 26km
Aktualizacja: 17/01/2018 22:20
Lekki deszcz, Częściowe zachmurzenie
Lekki deszcz, Częściowe zachmurzenie
 Wiatr z PnZd
Wiatr: PnZd 35 km/h, Poryw: 54 km/h
Temperatura: 6°C
Wind Chill: 1°C
Punkt Rosy: 4°C
Wilgotność: 87%
Ciśnienie: 1007 hPa
Podsumowanie: Lekki deszcz
Clouds: Częściowe zachmurzenie
Visibility: 10 km
Cloud details: Few Clouds 610 m
Częściowe zachmurzenie 1219 m
2018/01/17 21:20 LIBD 172120Z 32019G29KT 9999 -RA FEW020CB SCT040 06/04 Q1007 RETSRA
LIBH - Marina Di Ginosa, Italy
Distance from station: Pd 53km
Aktualizacja: 17/01/2018 21:55
Częściowe zachmurzenie
Częściowe zachmurzenie
 Wiatr z Zd
Wiatr: Zd 20 km/h
Temperatura: 11°C
Punkt Rosy: 3°C
Wilgotność: 58%
Ciśnienie: 1006 hPa
Clouds: Częściowe zachmurzenie
Visibility: 10 km
Cloud details: Częściowe zachmurzenie 914 m
2018/01/17 20:55 LIBH 172055Z 28011KT 9999 SCT030 11/03 Q1006 RMK BKN BKN080 QUK / QUL / VIS MAR 20 KM VIS MIN 9999
 
LIBG - Grottaglie(Civ/A, Italy
Distance from station: PdWs 61km
Aktualizacja: 17/01/2018 19:50
NOT Current
Częściowe zachmurzenie
Częściowe zachmurzenie
 Wiatr z ZdPnZd
Wiatr: ZdPnZd 24 km/h
Temperatura: 10°C
Wind Chill: 7°C
Punkt Rosy: 3°C
Wilgotność: 62%
Ciśnienie: 1004 hPa
Clouds: Częściowe zachmurzenie
Visibility: 10 km
Cloud details: Częściowe zachmurzenie 1067 m
2018/01/17 18:50 LIBG 171850Z 30013KT 270V340 9999 SCT035 10/03 Q1004
LIBR - Brindisi/Casale, Italy
Distance from station: WsPdWs 96km
Aktualizacja: 17/01/2018 22:20
Lekki deszcz, Częściowe zachmurzenie
Lekki deszcz, Częściowe zachmurzenie
 Wiatr z ZdPnZd
Wiatr: ZdPnZd 50 km/h, Poryw: 74 km/h
Temperatura: 10°C
Wind Chill: 6°C
Punkt Rosy: 5°C
Wilgotność: 71%
Ciśnienie: 1005 hPa
Podsumowanie: Lekki deszcz
Clouds: Częściowe zachmurzenie
Visibility: 10 km
Cloud details: Częściowe zachmurzenie 914 m
2018/01/17 21:20 LIBR 172120Z 29027G40KT 9999 -RA SCT030 10/05 Q1005
LIBA - Amendola (it-Afb, Italy
Distance from station: PnZd 118km
Aktualizacja: 17/01/2018 18:55
NOT Current
Częściowe zachmurzenie
Częściowe zachmurzenie
 Wiatr z PnZd
Wiatr: PnZd 48 km/h, Poryw: 69 km/h
Temperatura: 10°C
Wind Chill: 6°C
Punkt Rosy: 2°C
Wilgotność: 58%
Ciśnienie: 1006 hPa
Clouds: Częściowe zachmurzenie
Visibility: 10 km
Cloud details: Częściowe zachmurzenie 1219 m
2018/01/17 17:55 LIBA 171755Z 32026G37KT 9999 SCT040 10/02 Q1006 RMK BKN BKN130 VIS MIN 9999 WIND THR11 32020G30KT WIND THR29 /////KT BLU
 
LIBF - Foggia/Gino Lisa, Italy
Distance from station: ZdPnZd 126km
Aktualizacja: 17/01/2018 15:50
NOT Current
Deszcz, Przeważnie pochmurno
Deszcz, Przeważnie pochmurno
 Wiatr z PnZd
Wiatr: PnZd 59 km/h, Poryw: 83 km/h
Temperatura: 10°C
Wind Chill: 5°C
Punkt Rosy: 6°C
Wilgotność: 76%
Ciśnienie: 1001 hPa
Podsumowanie: Deszcz
Clouds: Przeważnie pochmurno
Visibility: 5 km
Cloud details: Przeważnie pochmurno 610 m
2018/01/17 14:50 LIBF 171450Z 32032G45KT 5000 RA BKN020 10/06 Q1001
LIBN - Lecce (it-Afb), Italy
Distance from station: PdWs 132km
Aktualizacja: 17/01/2018 21:55
Few Clouds
Few Clouds
 Wiatr z ZdPnZd
Wiatr: ZdPnZd 30 km/h
Temperatura: 9°C
Wind Chill: 5°C
Punkt Rosy: 3°C
Wilgotność: 66%
Ciśnienie: 1005 hPa
Clouds: Few Clouds
Visibility: 10 km
Cloud details: Few Clouds 914 m
2018/01/17 20:55 LIBN 172055Z 29016KT 9999 FEW030 09/03 Q1005 RMK BKN BKN080 VIS MIN 9999 WIND THR14 28014KT WIND THR32 28014KT BLU